createdAt,value
2023-03-11T00:00:53.507Z,1.50
2023-03-11T00:04:00.160Z,1.55
2023-03-11T00:07:09.626Z,1.58
2023-03-11T00:10:20.392Z,1.57
2023-03-11T00:13:29.213Z,1.48
2023-03-11T00:16:32.696Z,1.42
2023-03-11T00:19:43.293Z,1.36
2023-03-11T00:22:53.659Z,1.29
2023-03-11T00:26:03.213Z,1.23
2023-03-11T00:29:06.713Z,1.16
2023-03-11T00:32:22.002Z,1.14
2023-03-11T00:35:30.282Z,1.06
2023-03-11T00:38:38.727Z,1.01
2023-03-11T00:41:48.390Z,0.95
2023-03-11T00:45:00.759Z,0.90
2023-03-11T00:48:08.152Z,0.84
2023-03-11T00:51:15.510Z,0.81
2023-03-11T00:54:28.032Z,0.78
2023-03-11T00:57:32.815Z,0.75
2023-03-11T01:00:42.421Z,0.72
2023-03-11T01:03:52.612Z,0.73
2023-03-11T01:07:04.579Z,0.74
2023-03-11T01:10:12.057Z,0.71
2023-03-11T01:13:18.494Z,0.69
2023-03-11T01:16:22.275Z,0.69
2023-03-11T01:19:31.955Z,0.70
2023-03-11T01:22:36.357Z,0.69
2023-03-11T01:25:49.697Z,0.69
2023-03-11T01:28:56.764Z,0.69
2023-03-11T01:32:12.725Z,0.68
2023-03-11T01:35:23.015Z,0.66
2023-03-11T01:38:35.915Z,0.63
2023-03-11T01:42:00.601Z,0.60
2023-03-11T01:45:07.693Z,0.60
2023-03-11T01:48:24.376Z,0.59
2023-03-11T01:51:57.312Z,0.59
2023-03-11T01:55:10.106Z,0.61
2023-03-11T01:58:31.043Z,0.61
2023-03-11T02:01:41.372Z,0.64
2023-03-11T02:05:06.725Z,0.64
2023-03-11T02:08:15.561Z,0.64
2023-03-11T02:11:28.687Z,0.68
2023-03-11T02:14:38.204Z,0.71
2023-03-11T02:17:51.074Z,0.72
2023-03-11T02:21:08.577Z,0.75
2023-03-11T02:24:20.218Z,0.74
2023-03-11T02:27:31.329Z,0.77
2023-03-11T02:30:43.727Z,0.79
2023-03-11T02:33:50.566Z,0.79
2023-03-11T02:36:54.147Z,0.77
2023-03-11T02:40:41.772Z,0.78
2023-03-11T02:43:49.995Z,0.77
2023-03-11T02:47:11.355Z,0.77
2023-03-11T02:50:23.740Z,0.80
2023-03-11T02:53:35.014Z,0.79
2023-03-11T02:56:49.364Z,0.79
2023-03-11T03:00:10.897Z,0.80
2023-03-11T03:03:22.171Z,0.81
2023-03-11T03:06:31.515Z,0.81
2023-03-11T03:09:53.045Z,0.80
2023-03-11T03:13:16.421Z,0.80
2023-03-11T03:16:27.892Z,0.79
2023-03-11T03:19:31.998Z,0.79
2023-03-11T03:22:43.894Z,0.79
2023-03-11T03:25:52.726Z,0.80
2023-03-11T03:29:11.039Z,0.81
2023-03-11T03:32:23.903Z,0.78
2023-03-11T03:35:33.253Z,0.79
2023-03-11T03:38:49.850Z,0.74
2023-03-11T03:42:09.534Z,0.70
2023-03-11T03:45:19.954Z,0.70
2023-03-11T03:48:36.561Z,0.67
2023-03-11T03:51:49.593Z,0.67
2023-03-11T03:55:26.003Z,0.67
2023-03-11T03:58:31.142Z,0.67
2023-03-11T04:01:37.707Z,0.67
2023-03-11T04:04:52.202Z,0.67
2023-03-11T04:08:12.344Z,0.70
2023-03-11T04:11:30.877Z,0.70
2023-03-11T04:14:35.445Z,0.70
2023-03-11T04:17:48.589Z,0.71
2023-03-11T04:21:06.828Z,0.70
2023-03-11T04:24:48.267Z,0.72
2023-03-11T04:27:55.510Z,0.72
2023-03-11T04:31:05.067Z,0.72
2023-03-11T04:34:19.958Z,0.72
2023-03-11T04:37:44.093Z,0.74
2023-03-11T04:40:51.493Z,0.75
2023-03-11T04:44:05.859Z,0.75
2023-03-11T04:47:15.561Z,0.74
2023-03-11T04:50:20.337Z,0.75
2023-03-11T04:53:42.600Z,0.76
2023-03-11T04:56:50.176Z,0.78
2023-03-11T05:00:15.876Z,0.75
2023-03-11T05:03:29.757Z,0.76
2023-03-11T05:06:54.909Z,0.78
2023-03-11T05:10:02.262Z,0.78
2023-03-11T05:13:24.874Z,0.80
2023-03-11T05:16:34.497Z,0.79
2023-03-11T05:20:24.935Z,0.79
2023-03-11T05:23:49.800Z,0.77
2023-03-11T05:27:17.898Z,0.78
2023-03-11T05:30:34.389Z,0.77
2023-03-11T05:33:48.387Z,0.77
2023-03-11T05:37:02.067Z,0.79
2023-03-11T05:40:27.177Z,0.79
2023-03-11T05:43:42.147Z,0.81
2023-03-11T05:46:54.006Z,0.83
2023-03-11T05:49:59.911Z,0.82
2023-03-11T05:53:10.086Z,0.81
2023-03-11T05:56:32.795Z,0.82
2023-03-11T05:59:40.301Z,0.83
2023-03-11T06:02:53.174Z,0.82
2023-03-11T06:06:18.010Z,0.82
2023-03-11T06:09:40.265Z,0.84
2023-03-11T06:12:59.150Z,0.83
2023-03-11T06:16:11.734Z,0.83
2023-03-11T06:19:28.894Z,0.84
2023-03-11T06:22:46.346Z,0.83
2023-03-11T06:26:12.735Z,0.76
2023-03-11T06:30:10.453Z,0.71
2023-03-11T06:38:59.335Z,0.79
2023-03-11T06:42:18.366Z,0.79
2023-03-11T06:45:25.830Z,0.81
2023-03-11T06:48:34.309Z,0.82
2023-03-11T06:52:10.872Z,0.81
2023-03-11T06:55:29.028Z,0.84
2023-03-11T06:58:41.844Z,0.85
2023-03-11T07:01:47.272Z,0.85
2023-03-11T07:05:06.120Z,0.88
2023-03-11T07:08:13.350Z,0.89
2023-03-11T07:11:28.413Z,0.88
2023-03-11T07:14:41.409Z,0.86
2023-03-11T07:18:10.967Z,0.86
2023-03-11T07:21:23.262Z,0.89
2023-03-11T07:24:49.269Z,0.90
2023-03-11T07:33:44.249Z,1.02
2023-03-11T07:42:36.947Z,0.91
2023-03-11T07:46:09.846Z,0.94
2023-03-11T07:49:19.936Z,0.94
2023-03-11T07:52:43.090Z,0.94
2023-03-11T07:55:48.619Z,0.94
2023-03-11T07:59:06.675Z,1.03
2023-03-11T08:02:20.421Z,1.07
2023-03-11T08:05:40.225Z,1.18
2023-03-11T08:14:16.732Z,1.26
2023-03-11T08:17:33.428Z,1.31
2023-03-11T08:20:54.807Z,1.31
2023-03-11T08:24:14.682Z,1.37
2023-03-11T08:27:28.939Z,1.37
2023-03-11T08:31:28.897Z,1.35
2023-03-11T08:35:43.986Z,1.48
2023-03-11T08:38:41.315Z,1.42
2023-03-11T08:41:46.308Z,1.51
2023-03-11T08:45:02.149Z,1.69
2023-03-11T08:48:14.436Z,1.74
2023-03-11T08:51:26.598Z,1.82
2023-03-11T08:54:42.089Z,1.80
2023-03-11T08:58:08.173Z,1.88
2023-03-11T09:05:55.832Z,1.73
2023-03-11T09:09:20.485Z,1.75
2023-03-11T09:12:59.386Z,1.64
2023-03-11T09:16:37.139Z,1.64
2023-03-11T09:19:48.870Z,1.70
2023-03-11T09:22:54.402Z,1.70
2023-03-11T09:26:07.038Z,1.78
2023-03-11T09:29:10.818Z,1.75
2023-03-11T09:32:26.625Z,1.83
2023-03-11T09:35:35.610Z,1.86
2023-03-11T09:38:42.456Z,1.81
2023-03-11T09:41:58.707Z,1.81
2023-03-11T09:45:23.155Z,1.93
2023-03-11T09:48:56.241Z,2.02
2023-03-11T09:53:15.492Z,2.02
2023-03-11T09:56:31.827Z,2.13
2023-03-11T10:00:00.777Z,2.04
2023-03-11T10:03:39.379Z,2.07
2023-03-11T10:07:03.142Z,2.16
2023-03-11T10:10:29.742Z,2.37
2023-03-11T10:13:56.110Z,2.49
2023-03-11T10:21:33.391Z,2.50
2023-03-11T10:25:14.860Z,2.21
2023-03-11T10:28:49.860Z,2.20
2023-03-11T10:32:06.525Z,2.26
2023-03-11T10:35:19.913Z,2.20
2023-03-11T10:38:33.061Z,2.21
2023-03-11T10:41:54.806Z,2.12
2023-03-11T10:45:41.528Z,2.33
2023-03-11T10:49:02.960Z,2.30
2023-03-11T10:52:15.302Z,2.23
2023-03-11T10:55:28.763Z,2.26
2023-03-11T10:59:09.579Z,2.10
2023-03-11T11:03:17.474Z,2.22
2023-03-11T11:06:35.011Z,2.33
2023-03-11T11:10:12.758Z,2.42
2023-03-11T11:13:43.011Z,2.50
2023-03-11T11:17:06.322Z,2.43
2023-03-11T11:20:45.671Z,2.52
2023-03-11T11:24:17.430Z,2.30
2023-03-11T11:27:33.233Z,2.44
2023-03-11T11:30:39.340Z,2.50
2023-03-11T11:33:52.583Z,2.59
2023-03-11T11:36:59.766Z,2.61
2023-03-11T11:40:11.575Z,3.39
2023-03-11T11:43:22.861Z,3.24
2023-03-11T11:46:44.859Z,2.80
2023-03-11T11:50:15.170Z,2.92
2023-03-11T11:53:32.968Z,3.60
2023-03-11T11:56:47.736Z,3.43
2023-03-11T12:00:01.449Z,3.00
2023-03-11T12:03:41.369Z,2.98
2023-03-11T12:07:13.472Z,2.89
2023-03-11T12:10:36.576Z,2.69
2023-03-11T12:14:04.495Z,2.73
2023-03-11T12:17:19.602Z,2.64
2023-03-11T12:20:32.727Z,2.76
2023-03-11T12:24:07.836Z,3.44
2023-03-11T12:27:40.842Z,3.02
2023-03-11T12:31:09.836Z,2.98
2023-03-11T12:34:32.329Z,3.00
2023-03-11T12:37:35.685Z,2.87
2023-03-11T12:41:06.523Z,2.66
2023-03-11T12:44:32.705Z,2.69
2023-03-11T12:47:40.278Z,2.68
2023-03-11T12:50:49.415Z,2.83
2023-03-11T12:54:06.646Z,2.72
2023-03-11T12:57:35.973Z,2.71
2023-03-11T13:01:15.775Z,2.76
2023-03-11T13:04:40.087Z,2.78
2023-03-11T13:08:01.913Z,2.83
2023-03-11T13:11:43.736Z,2.66
2023-03-11T13:14:55.250Z,2.64
2023-03-11T13:18:23.451Z,2.68
2023-03-11T13:21:46.769Z,2.59
2023-03-11T13:25:29.811Z,2.57
2023-03-11T13:29:18.415Z,2.78
2023-03-11T13:32:39.070Z,3.56
2023-03-11T13:36:05.982Z,3.55
2023-03-11T13:39:35.617Z,3.69
2023-03-11T13:42:49.459Z,3.84
2023-03-11T13:46:17.092Z,3.66
2023-03-11T13:49:39.287Z,3.46
2023-03-11T13:52:50.646Z,3.52
2023-03-11T13:55:57.015Z,3.43
2023-03-11T13:59:23.577Z,3.33
2023-03-11T14:02:29.177Z,3.38
2023-03-11T14:05:45.704Z,3.18
2023-03-11T14:09:09.763Z,3.08
2023-03-11T14:12:20.152Z,3.16
2023-03-11T14:15:30.761Z,3.60
2023-03-11T14:18:41.252Z,3.41
2023-03-11T14:21:59.415Z,3.26
2023-03-11T14:25:15.478Z,3.37
2023-03-11T14:28:33.374Z,3.53
2023-03-11T14:31:51.933Z,3.43
2023-03-11T14:35:00.423Z,3.24
2023-03-11T14:38:05.125Z,3.51
2023-03-11T14:41:18.854Z,3.22
2023-03-11T14:48:02.341Z,3.65
2023-03-11T14:51:35.590Z,3.17
2023-03-11T14:55:02.470Z,2.96
2023-03-11T14:58:51.101Z,2.87
2023-03-11T15:03:01.263Z,2.90
2023-03-11T15:06:29.015Z,2.89
2023-03-11T15:09:59.920Z,3.35
2023-03-11T15:13:14.071Z,3.15
2023-03-11T15:16:32.546Z,2.97
2023-03-11T15:19:37.151Z,2.77
2023-03-11T15:22:41.830Z,2.66
2023-03-11T15:25:56.793Z,2.75
2023-03-11T15:29:25.657Z,2.57
2023-03-11T15:32:44.183Z,2.57
2023-03-11T15:35:53.237Z,2.55
2023-03-11T15:39:17.486Z,2.46
2023-03-11T15:42:26.599Z,2.44
2023-03-11T15:45:41.239Z,2.45
2023-03-11T15:48:44.747Z,2.44
2023-03-11T15:51:48.847Z,2.43
2023-03-11T15:54:56.049Z,2.45
2023-03-11T15:58:10.481Z,2.50
2023-03-11T16:01:18.501Z,2.50
2023-03-11T16:04:36.961Z,2.55
2023-03-11T16:07:49.106Z,2.59
2023-03-11T16:10:55.948Z,2.63
2023-03-11T16:14:01.572Z,2.63
2023-03-11T16:17:10.149Z,2.56
2023-03-11T16:20:17.306Z,2.54
2023-03-11T16:23:51.082Z,2.44
2023-03-11T16:26:58.239Z,2.42
2023-03-11T16:30:10.145Z,2.38
2023-03-11T16:33:29.610Z,2.35
2023-03-11T16:36:36.716Z,2.31
2023-03-11T16:39:46.043Z,2.27
2023-03-11T16:46:53.202Z,2.22
2023-03-11T16:50:04.242Z,2.14
2023-03-11T16:53:11.176Z,2.21
2023-03-11T16:56:25.702Z,2.24
2023-03-11T16:59:36.637Z,2.21
2023-03-11T17:02:40.485Z,2.27
2023-03-11T17:05:48.406Z,2.26
2023-03-11T17:09:15.935Z,2.28
2023-03-11T17:12:24.960Z,2.26
2023-03-11T17:15:32.992Z,2.29
2023-03-11T17:18:36.767Z,2.25
2023-03-11T17:21:42.681Z,2.23
2023-03-11T17:24:46.788Z,2.26
2023-03-11T17:27:50.970Z,2.20
2023-03-11T17:31:14.210Z,2.20
2023-03-11T17:34:32.156Z,2.13
2023-03-11T17:37:41.677Z,2.10
2023-03-11T17:40:51.303Z,2.09
2023-03-11T17:44:10.734Z,1.95
2023-03-11T17:47:14.843Z,1.97
2023-03-11T17:50:19.991Z,1.98
2023-03-11T17:53:30.267Z,1.92
2023-03-11T17:56:36.586Z,1.85
2023-03-11T17:59:39.806Z,1.87
2023-03-11T18:02:45.279Z,1.86
2023-03-11T18:05:55.736Z,1.79
2023-03-11T18:09:04.322Z,1.77
2023-03-11T18:12:17.047Z,1.77
2023-03-11T18:15:22.611Z,1.75
2023-03-11T18:18:25.969Z,1.61
2023-03-11T18:21:30.889Z,1.63
2023-03-11T18:24:35.398Z,1.62
2023-03-11T18:27:49.242Z,1.52
2023-03-11T18:30:54.180Z,1.47
2023-03-11T18:34:00.171Z,1.41
2023-03-11T18:37:03.352Z,1.45
2023-03-11T18:40:11.081Z,1.42
2023-03-11T18:43:16.866Z,1.38
2023-03-11T18:46:25.537Z,1.40
2023-03-11T18:49:35.064Z,1.40
2023-03-11T18:52:45.371Z,1.44
2023-03-11T18:55:50.405Z,1.47
2023-03-11T18:58:55.395Z,1.42
2023-03-11T19:02:04.290Z,1.43
2023-03-11T19:05:08.922Z,1.29
2023-03-11T19:08:14.442Z,1.27
2023-03-11T19:11:21.692Z,1.34
2023-03-11T19:14:30.115Z,1.34
2023-03-11T19:18:00.624Z,1.37
2023-03-11T19:21:21.479Z,1.29
2023-03-11T19:28:05.495Z,1.31
2023-03-11T19:31:12.226Z,1.28
2023-03-11T19:34:21.181Z,1.25
2023-03-11T19:37:27.232Z,1.30
2023-03-11T19:40:33.776Z,1.34
2023-03-11T19:43:39.421Z,1.31
2023-03-11T19:46:42.664Z,1.31
2023-03-11T19:49:51.735Z,1.25
2023-03-11T19:52:55.034Z,1.23
2023-03-11T19:56:09.323Z,1.16
2023-03-11T19:59:19.184Z,1.14
2023-03-11T20:02:23.211Z,1.20
2023-03-11T20:05:31.905Z,1.08
2023-03-11T20:08:40.726Z,1.08
2023-03-11T20:11:45.614Z,1.03
2023-03-11T20:14:50.066Z,1.14
2023-03-11T20:18:01.260Z,1.12
2023-03-11T20:21:15.303Z,1.12
2023-03-11T20:24:24.129Z,1.09
2023-03-11T20:27:32.903Z,1.10
2023-03-11T20:30:41.724Z,1.13
2023-03-11T20:34:07.122Z,1.18
2023-03-11T20:37:13.579Z,1.14
2023-03-11T20:40:25.865Z,1.21
2023-03-11T20:43:34.872Z,1.20
2023-03-11T20:46:39.774Z,1.26
2023-03-11T20:49:47.496Z,1.25
2023-03-11T20:52:53.495Z,1.21
2023-03-11T20:55:56.787Z,1.16
2023-03-11T20:59:02.749Z,1.21
2023-03-11T21:02:11.677Z,1.19
2023-03-11T21:05:18.922Z,1.26
2023-03-11T21:08:23.290Z,1.21
2023-03-11T21:11:49.252Z,1.29
2023-03-11T21:15:05.558Z,1.26
2023-03-11T21:18:13.078Z,1.30
2023-03-11T21:21:20.494Z,1.35
2023-03-11T21:24:31.041Z,1.31
2023-03-11T21:28:00.180Z,1.35
2023-03-11T21:31:10.772Z,1.28
2023-03-11T21:34:15.425Z,1.26
2023-03-11T21:37:18.696Z,1.27
2023-03-11T21:40:22.503Z,1.24
2023-03-11T21:43:26.260Z,1.21
2023-03-11T21:46:32.782Z,1.26
2023-03-11T21:49:40.125Z,1.23
2023-03-11T21:52:44.281Z,1.21
2023-03-11T21:55:49.983Z,1.25
2023-03-11T21:58:54.260Z,1.19
2023-03-11T22:02:01.500Z,1.25
2023-03-11T22:05:10.988Z,1.22
2023-03-11T22:08:20.386Z,1.23
2023-03-11T22:11:33.968Z,1.21
2023-03-11T22:14:38.790Z,1.13
2023-03-11T22:17:42.329Z,1.10
2023-03-11T22:20:47.246Z,1.14
2023-03-11T22:23:58.796Z,1.18
2023-03-11T22:27:08.500Z,1.22
2023-03-11T22:30:13.731Z,1.21
2023-03-11T22:33:21.917Z,1.30
2023-03-11T22:36:26.757Z,1.25
2023-03-11T22:39:30.027Z,1.20
2023-03-11T22:42:38.161Z,1.20
2023-03-11T22:45:41.643Z,1.21
2023-03-11T22:48:46.742Z,1.20
2023-03-11T22:51:58.462Z,1.22
2023-03-11T22:55:03.984Z,1.25
2023-03-11T22:58:11.969Z,1.15
2023-03-11T23:01:33.996Z,1.21
2023-03-11T23:04:54.225Z,1.22
2023-03-11T23:08:07.614Z,1.22
2023-03-11T23:11:21.007Z,1.21
2023-03-11T23:14:43.716Z,1.18
2023-03-11T23:17:50.619Z,1.20
2023-03-11T23:20:54.000Z,1.20
2023-03-11T23:24:06.370Z,1.14
2023-03-11T23:27:09.550Z,1.15
2023-03-11T23:30:15.688Z,1.15
2023-03-11T23:33:19.764Z,1.18
2023-03-11T23:36:30.223Z,1.20
2023-03-11T23:39:41.727Z,1.18
2023-03-11T23:42:47.514Z,1.15
2023-03-11T23:45:51.149Z,1.17
2023-03-11T23:48:54.170Z,1.15
2023-03-11T23:51:57.304Z,1.19
2023-03-11T23:55:04.263Z,1.20
2023-03-11T23:58:07.517Z,1.20
